sensor_id;sensor_type;location;lat;lon;timestamp;P1;durP1;ratioP1;P2;durP2;ratioP2
1378;SDS011;683;48.738;9.226;2022-10-16T00:00:41;4.40;;;2.17;;
1378;SDS011;683;48.738;9.226;2022-10-16T00:03:09;2.90;;;2.23;;
1378;SDS011;683;48.738;9.226;2022-10-16T00:05:40;4.87;;;2.53;;
1378;SDS011;683;48.738;9.226;2022-10-16T00:08:09;1.93;;;1.83;;
1378;SDS011;683;48.738;9.226;2022-10-16T00:10:38;2.20;;;2.00;;
1378;SDS011;683;48.738;9.226;2022-10-16T00:13:06;2.27;;;2.07;;
1378;SDS011;683;48.738;9.226;2022-10-16T00:15:35;2.40;;;2.20;;
1378;SDS011;683;48.738;9.226;2022-10-16T00:18:04;2.30;;;2.10;;
1378;SDS011;683;48.738;9.226;2022-10-16T00:20:33;2.73;;;2.07;;
1378;SDS011;683;48.738;9.226;2022-10-16T00:23:20;2.73;;;2.20;;
1378;SDS011;683;48.738;9.226;2022-10-16T00:25:58;3.13;;;2.93;;
1378;SDS011;683;48.738;9.226;2022-10-16T00:28:27;2.77;;;2.57;;
1378;SDS011;683;48.738;9.226;2022-10-16T00:30:56;5.30;;;2.73;;
1378;SDS011;683;48.738;9.226;2022-10-16T00:33:24;3.43;;;3.13;;
1378;SDS011;683;48.738;9.226;2022-10-16T00:35:52;2.97;;;2.60;;
1378;SDS011;683;48.738;9.226;2022-10-16T00:38:19;3.77;;;3.50;;
1378;SDS011;683;48.738;9.226;2022-10-16T00:40:46;6.90;;;3.33;;
1378;SDS011;683;48.738;9.226;2022-10-16T00:43:31;3.77;;;2.97;;
1378;SDS011;683;48.738;9.226;2022-10-16T00:46:03;3.57;;;3.33;;
1378;SDS011;683;48.738;9.226;2022-10-16T00:48:32;4.27;;;3.50;;
1378;SDS011;683;48.738;9.226;2022-10-16T00:50:59;4.33;;;3.93;;
1378;SDS011;683;48.738;9.226;2022-10-16T00:53:27;3.80;;;3.50;;
1378;SDS011;683;48.738;9.226;2022-10-16T00:55:55;3.80;;;3.30;;
1378;SDS011;683;48.738;9.226;2022-10-16T00:58:22;3.77;;;3.20;;
1378;SDS011;683;48.738;9.226;2022-10-16T01:00:50;4.27;;;3.87;;
1378;SDS011;683;48.738;9.226;2022-10-16T01:03:26;3.90;;;3.50;;
1378;SDS011;683;48.738;9.226;2022-10-16T01:05:58;3.87;;;3.47;;
1378;SDS011;683;48.738;9.226;2022-10-16T01:08:47;8.43;;;3.20;;
1378;SDS011;683;48.738;9.226;2022-10-16T01:11:27;8.20;;;3.87;;
1378;SDS011;683;48.738;9.226;2022-10-16T01:14:01;3.70;;;3.40;;
1378;SDS011;683;48.738;9.226;2022-10-16T01:16:41;4.23;;;3.83;;
1378;SDS011;683;48.738;9.226;2022-10-16T01:19:16;3.83;;;3.53;;
1378;SDS011;683;48.738;9.226;2022-10-16T01:21:46;3.80;;;3.50;;
1378;SDS011;683;48.738;9.226;2022-10-16T01:24:17;3.20;;;2.93;;
1378;SDS011;683;48.738;9.226;2022-10-16T01:29:45;3.80;;;3.27;;
1378;SDS011;683;48.738;9.226;2022-10-16T01:32:20;3.67;;;3.37;;
1378;SDS011;683;48.738;9.226;2022-10-16T01:34:55;4.50;;;3.43;;
1378;SDS011;683;48.738;9.226;2022-10-16T01:37:32;3.90;;;3.60;;
1378;SDS011;683;48.738;9.226;2022-10-16T01:40:05;6.90;;;4.20;;
1378;SDS011;683;48.738;9.226;2022-10-16T01:42:39;4.73;;;3.57;;
1378;SDS011;683;48.738;9.226;2022-10-16T01:45:09;3.00;;;2.80;;
1378;SDS011;683;48.738;9.226;2022-10-16T01:47:40;6.27;;;3.90;;
1378;SDS011;683;48.738;9.226;2022-10-16T01:50:09;3.53;;;3.23;;
1378;SDS011;683;48.738;9.226;2022-10-16T01:52:37;3.53;;;3.27;;
1378;SDS011;683;48.738;9.226;2022-10-16T01:55:09;3.90;;;3.50;;
1378;SDS011;683;48.738;9.226;2022-10-16T01:57:41;9.13;;;4.43;;
1378;SDS011;683;48.738;9.226;2022-10-16T02:00:13;3.77;;;3.47;;
1378;SDS011;683;48.738;9.226;2022-10-16T02:02:43;6.23;;;3.50;;
1378;SDS011;683;48.738;9.226;2022-10-16T02:05:15;4.20;;;3.90;;
1378;SDS011;683;48.738;9.226;2022-10-16T02:07:47;4.63;;;3.00;;
1378;SDS011;683;48.738;9.226;2022-10-16T02:10:15;4.90;;;3.83;;
1378;SDS011;683;48.738;9.226;2022-10-16T02:12:45;4.23;;;3.90;;
1378;SDS011;683;48.738;9.226;2022-10-16T02:15:17;5.10;;;3.53;;
1378;SDS011;683;48.738;9.226;2022-10-16T02:17:45;5.57;;;3.10;;
1378;SDS011;683;48.738;9.226;2022-10-16T02:20:12;4.80;;;3.30;;
1378;SDS011;683;48.738;9.226;2022-10-16T02:22:40;4.40;;;3.07;;
1378;SDS011;683;48.738;9.226;2022-10-16T02:25:13;3.70;;;3.40;;
1378;SDS011;683;48.738;9.226;2022-10-16T02:27:46;4.27;;;3.20;;
1378;SDS011;683;48.738;9.226;2022-10-16T02:30:21;2.50;;;2.40;;
1378;SDS011;683;48.738;9.226;2022-10-16T02:32:55;3.43;;;3.13;;
1378;SDS011;683;48.738;9.226;2022-10-16T02:35:25;5.23;;;3.60;;
1378;SDS011;683;48.738;9.226;2022-10-16T02:37:53;4.10;;;3.70;;
1378;SDS011;683;48.738;9.226;2022-10-16T02:40:22;5.67;;;3.63;;
1378;SDS011;683;48.738;9.226;2022-10-16T02:42:52;4.43;;;3.40;;
1378;SDS011;683;48.738;9.226;2022-10-16T02:45:20;4.57;;;4.00;;
1378;SDS011;683;48.738;9.226;2022-10-16T02:47:48;3.90;;;3.60;;
1378;SDS011;683;48.738;9.226;2022-10-16T02:50:16;3.40;;;3.20;;
1378;SDS011;683;48.738;9.226;2022-10-16T02:52:43;4.67;;;4.27;;
1378;SDS011;683;48.738;9.226;2022-10-16T02:55:11;5.27;;;4.53;;
1378;SDS011;683;48.738;9.226;2022-10-16T02:57:38;3.77;;;3.47;;
1378;SDS011;683;48.738;9.226;2022-10-16T03:00:09;3.50;;;3.30;;
1378;SDS011;683;48.738;9.226;2022-10-16T03:02:38;3.57;;;3.33;;
1378;SDS011;683;48.738;9.226;2022-10-16T03:05:06;4.43;;;3.37;;
1378;SDS011;683;48.738;9.226;2022-10-16T03:07:35;4.67;;;4.03;;
1378;SDS011;683;48.738;9.226;2022-10-16T03:10:02;3.70;;;3.27;;
1378;SDS011;683;48.738;9.226;2022-10-16T03:12:30;3.27;;;3.07;;
1378;SDS011;683;48.738;9.226;2022-10-16T03:14:57;3.40;;;3.20;;
1378;SDS011;683;48.738;9.226;2022-10-16T03:17:26;4.73;;;3.40;;
1378;SDS011;683;48.738;9.226;2022-10-16T03:19:53;4.50;;;3.53;;
1378;SDS011;683;48.738;9.226;2022-10-16T03:22:21;3.47;;;3.17;;
1378;SDS011;683;48.738;9.226;2022-10-16T03:24:48;3.23;;;3.03;;
1378;SDS011;683;48.738;9.226;2022-10-16T03:27:15;3.63;;;3.03;;
1378;SDS011;683;48.738;9.226;2022-10-16T03:29:43;2.53;;;2.33;;
1378;SDS011;683;48.738;9.226;2022-10-16T03:32:10;3.40;;;2.83;;
1378;SDS011;683;48.738;9.226;2022-10-16T03:34:39;3.70;;;3.40;;
1378;SDS011;683;48.738;9.226;2022-10-16T03:37:06;4.00;;;3.30;;
1378;SDS011;683;48.738;9.226;2022-10-16T03:39:34;6.80;;;3.27;;
1378;SDS011;683;48.738;9.226;2022-10-16T03:42:01;3.40;;;3.10;;
1378;SDS011;683;48.738;9.226;2022-10-16T03:44:28;4.70;;;2.80;;
1378;SDS011;683;48.738;9.226;2022-10-16T03:46:56;5.33;;;3.23;;
1378;SDS011;683;48.738;9.226;2022-10-16T03:49:23;5.70;;;3.30;;
1378;SDS011;683;48.738;9.226;2022-10-16T03:51:51;3.00;;;2.80;;
1378;SDS011;683;48.738;9.226;2022-10-16T03:54:19;3.73;;;2.57;;
1378;SDS011;683;48.738;9.226;2022-10-16T03:56:47;7.03;;;3.70;;
1378;SDS011;683;48.738;9.226;2022-10-16T03:59:15;3.53;;;3.23;;
1378;SDS011;683;48.738;9.226;2022-10-16T04:01:42;3.30;;;2.53;;
1378;SDS011;683;48.738;9.226;2022-10-16T04:04:10;4.20;;;3.80;;
1378;SDS011;683;48.738;9.226;2022-10-16T04:06:37;3.07;;;2.40;;
1378;SDS011;683;48.738;9.226;2022-10-16T04:09:06;3.13;;;2.60;;
1378;SDS011;683;48.738;9.226;2022-10-16T04:11:33;3.00;;;2.50;;
1378;SDS011;683;48.738;9.226;2022-10-16T04:14:00;2.47;;;2.27;;
1378;SDS011;683;48.738;9.226;2022-10-16T04:16:28;4.10;;;2.60;;
1378;SDS011;683;48.738;9.226;2022-10-16T04:18:55;2.60;;;2.40;;
1378;SDS011;683;48.738;9.226;2022-10-16T04:21:22;3.37;;;3.03;;
1378;SDS011;683;48.738;9.226;2022-10-16T04:23:50;3.10;;;2.90;;
1378;SDS011;683;48.738;9.226;2022-10-16T04:26:18;4.73;;;2.77;;
1378;SDS011;683;48.738;9.226;2022-10-16T04:28:46;3.37;;;2.00;;
1378;SDS011;683;48.738;9.226;2022-10-16T04:31:13;3.00;;;2.80;;
1378;SDS011;683;48.738;9.226;2022-10-16T04:33:42;3.67;;;2.57;;
1378;SDS011;683;48.738;9.226;2022-10-16T04:36:09;2.90;;;2.27;;
1378;SDS011;683;48.738;9.226;2022-10-16T04:38:37;5.93;;;2.17;;
1378;SDS011;683;48.738;9.226;2022-10-16T04:41:05;8.23;;;2.67;;
1378;SDS011;683;48.738;9.226;2022-10-16T04:43:34;3.77;;;3.03;;
1378;SDS011;683;48.738;9.226;2022-10-16T04:46:01;2.97;;;2.77;;
1378;SDS011;683;48.738;9.226;2022-10-16T04:48:30;3.73;;;2.47;;
1378;SDS011;683;48.738;9.226;2022-10-16T04:50:57;2.70;;;2.50;;
1378;SDS011;683;48.738;9.226;2022-10-16T04:53:24;2.73;;;2.53;;
1378;SDS011;683;48.738;9.226;2022-10-16T04:55:52;2.90;;;2.57;;
1378;SDS011;683;48.738;9.226;2022-10-16T04:58:20;2.83;;;2.53;;
1378;SDS011;683;48.738;9.226;2022-10-16T05:00:48;4.77;;;3.17;;
1378;SDS011;683;48.738;9.226;2022-10-16T05:03:16;3.30;;;3.00;;
1378;SDS011;683;48.738;9.226;2022-10-16T05:05:43;2.90;;;2.70;;
1378;SDS011;683;48.738;9.226;2022-10-16T05:08:11;4.73;;;2.90;;
1378;SDS011;683;48.738;9.226;2022-10-16T05:10:40;3.00;;;2.80;;
1378;SDS011;683;48.738;9.226;2022-10-16T05:13:08;3.13;;;2.83;;
1378;SDS011;683;48.738;9.226;2022-10-16T05:15:35;3.20;;;3.00;;
1378;SDS011;683;48.738;9.226;2022-10-16T05:18:04;4.20;;;2.70;;
1378;SDS011;683;48.738;9.226;2022-10-16T05:20:31;4.93;;;3.40;;
1378;SDS011;683;48.738;9.226;2022-10-16T05:22:58;2.93;;;2.47;;
1378;SDS011;683;48.738;9.226;2022-10-16T05:25:26;3.53;;;2.80;;
1378;SDS011;683;48.738;9.226;2022-10-16T05:27:53;2.90;;;2.70;;
1378;SDS011;683;48.738;9.226;2022-10-16T05:30:21;3.13;;;2.30;;
1378;SDS011;683;48.738;9.226;2022-10-16T05:32:48;4.60;;;3.07;;
1378;SDS011;683;48.738;9.226;2022-10-16T05:35:17;2.90;;;2.60;;
1378;SDS011;683;48.738;9.226;2022-10-16T05:37:46;3.10;;;2.80;;
1378;SDS011;683;48.738;9.226;2022-10-16T05:40:14;2.80;;;2.43;;
1378;SDS011;683;48.738;9.226;2022-10-16T05:42:42;3.20;;;2.47;;
1378;SDS011;683;48.738;9.226;2022-10-16T05:45:10;4.03;;;2.80;;
1378;SDS011;683;48.738;9.226;2022-10-16T05:47:38;3.27;;;2.97;;
1378;SDS011;683;48.738;9.226;2022-10-16T05:50:06;3.63;;;3.17;;
1378;SDS011;683;48.738;9.226;2022-10-16T05:52:35;3.73;;;3.40;;
1378;SDS011;683;48.738;9.226;2022-10-16T05:55:02;5.23;;;3.50;;
1378;SDS011;683;48.738;9.226;2022-10-16T05:57:30;5.47;;;3.27;;
1378;SDS011;683;48.738;9.226;2022-10-16T05:59:58;5.90;;;2.73;;
1378;SDS011;683;48.738;9.226;2022-10-16T06:02:25;4.23;;;3.40;;
1378;SDS011;683;48.738;9.226;2022-10-16T06:04:52;4.20;;;3.80;;
1378;SDS011;683;48.738;9.226;2022-10-16T06:07:20;6.90;;;3.93;;
1378;SDS011;683;48.738;9.226;2022-10-16T06:09:49;3.93;;;3.63;;
1378;SDS011;683;48.738;9.226;2022-10-16T06:12:17;3.63;;;3.43;;
1378;SDS011;683;48.738;9.226;2022-10-16T06:14:44;3.80;;;3.07;;
1378;SDS011;683;48.738;9.226;2022-10-16T06:17:12;5.57;;;4.30;;
1378;SDS011;683;48.738;9.226;2022-10-16T06:19:40;4.60;;;4.17;;
1378;SDS011;683;48.738;9.226;2022-10-16T06:22:07;11.80;;;4.60;;
1378;SDS011;683;48.738;9.226;2022-10-16T06:24:35;6.10;;;4.30;;
1378;SDS011;683;48.738;9.226;2022-10-16T06:27:04;4.13;;;3.83;;
1378;SDS011;683;48.738;9.226;2022-10-16T06:29:31;4.67;;;4.27;;
1378;SDS011;683;48.738;9.226;2022-10-16T06:31:59;6.50;;;4.90;;
1378;SDS011;683;48.738;9.226;2022-10-16T06:34:26;6.47;;;3.90;;
1378;SDS011;683;48.738;9.226;2022-10-16T06:36:53;4.27;;;3.90;;
1378;SDS011;683;48.738;9.226;2022-10-16T06:39:21;4.17;;;3.77;;
1378;SDS011;683;48.738;9.226;2022-10-16T06:41:49;4.60;;;3.30;;
1378;SDS011;683;48.738;9.226;2022-10-16T06:44:20;4.17;;;3.00;;
1378;SDS011;683;48.738;9.226;2022-10-16T06:46:48;4.67;;;3.20;;
1378;SDS011;683;48.738;9.226;2022-10-16T06:49:15;4.60;;;3.00;;
1378;SDS011;683;48.738;9.226;2022-10-16T06:51:47;6.30;;;3.00;;
1378;SDS011;683;48.738;9.226;2022-10-16T06:54:15;3.67;;;2.47;;
1378;SDS011;683;48.738;9.226;2022-10-16T06:56:43;2.80;;;2.50;;
1378;SDS011;683;48.738;9.226;2022-10-16T06:59:11;5.30;;;2.27;;
1378;SDS011;683;48.738;9.226;2022-10-16T07:01:40;2.83;;;2.07;;
1378;SDS011;683;48.738;9.226;2022-10-16T07:04:07;2.50;;;2.30;;
1378;SDS011;683;48.738;9.226;2022-10-16T07:06:34;2.03;;;1.93;;
1378;SDS011;683;48.738;9.226;2022-10-16T07:09:03;2.30;;;2.00;;
1378;SDS011;683;48.738;9.226;2022-10-16T07:11:32;5.13;;;2.33;;
1378;SDS011;683;48.738;9.226;2022-10-16T07:14:00;3.10;;;2.43;;
1378;SDS011;683;48.738;9.226;2022-10-16T07:16:28;2.30;;;1.93;;
1378;SDS011;683;48.738;9.226;2022-10-16T07:18:59;3.47;;;2.60;;
1378;SDS011;683;48.738;9.226;2022-10-16T07:21:27;1.80;;;1.70;;
1378;SDS011;683;48.738;9.226;2022-10-16T07:23:57;4.43;;;2.20;;
1378;SDS011;683;48.738;9.226;2022-10-16T07:26:27;2.90;;;2.70;;
1378;SDS011;683;48.738;9.226;2022-10-16T07:28:56;4.10;;;2.10;;
1378;SDS011;683;48.738;9.226;2022-10-16T07:31:23;5.33;;;2.40;;
1378;SDS011;683;48.738;9.226;2022-10-16T07:33:51;3.00;;;2.20;;
1378;SDS011;683;48.738;9.226;2022-10-16T07:36:20;4.37;;;2.67;;
1378;SDS011;683;48.738;9.226;2022-10-16T07:38:47;3.53;;;2.30;;
1378;SDS011;683;48.738;9.226;2022-10-16T07:41:16;6.50;;;2.63;;
1378;SDS011;683;48.738;9.226;2022-10-16T07:43:46;5.50;;;3.03;;
1378;SDS011;683;48.738;9.226;2022-10-16T07:46:13;2.50;;;2.30;;
1378;SDS011;683;48.738;9.226;2022-10-16T07:48:41;3.23;;;1.93;;
1378;SDS011;683;48.738;9.226;2022-10-16T07:51:11;3.40;;;2.57;;
1378;SDS011;683;48.738;9.226;2022-10-16T07:53:40;4.40;;;2.30;;
1378;SDS011;683;48.738;9.226;2022-10-16T07:56:08;2.67;;;2.43;;
1378;SDS011;683;48.738;9.226;2022-10-16T07:58:35;8.40;;;2.40;;
1378;SDS011;683;48.738;9.226;2022-10-16T08:01:03;3.10;;;2.23;;
1378;SDS011;683;48.738;9.226;2022-10-16T08:03:33;4.40;;;2.17;;
1378;SDS011;683;48.738;9.226;2022-10-16T08:06:00;3.70;;;2.27;;
1378;SDS011;683;48.738;9.226;2022-10-16T08:08:28;2.17;;;2.03;;
1378;SDS011;683;48.738;9.226;2022-10-16T08:10:57;4.83;;;2.50;;
1378;SDS011;683;48.738;9.226;2022-10-16T08:13:25;2.13;;;1.90;;
1378;SDS011;683;48.738;9.226;2022-10-16T08:15:53;2.63;;;2.40;;
1378;SDS011;683;48.738;9.226;2022-10-16T08:18:21;6.30;;;2.80;;
1378;SDS011;683;48.738;9.226;2022-10-16T08:20:54;2.10;;;1.90;;
1378;SDS011;683;48.738;9.226;2022-10-16T08:23:22;3.57;;;2.20;;
1378;SDS011;683;48.738;9.226;2022-10-16T08:25:51;2.40;;;1.60;;
1378;SDS011;683;48.738;9.226;2022-10-16T08:28:20;6.47;;;1.63;;
1378;SDS011;683;48.738;9.226;2022-10-16T08:30:48;2.73;;;1.57;;
1378;SDS011;683;48.738;9.226;2022-10-16T08:33:16;2.00;;;1.80;;
1378;SDS011;683;48.738;9.226;2022-10-16T08:35:49;4.63;;;1.97;;
1378;SDS011;683;48.738;9.226;2022-10-16T08:38:19;7.50;;;2.40;;
1378;SDS011;683;48.738;9.226;2022-10-16T08:40:47;4.00;;;2.10;;
1378;SDS011;683;48.738;9.226;2022-10-16T08:43:22;9.70;;;2.23;;
1378;SDS011;683;48.738;9.226;2022-10-16T08:46:07;2.00;;;1.80;;
1378;SDS011;683;48.738;9.226;2022-10-16T08:48:44;3.80;;;2.10;;
1378;SDS011;683;48.738;9.226;2022-10-16T08:51:16;2.17;;;1.73;;
1378;SDS011;683;48.738;9.226;2022-10-16T08:53:48;2.80;;;2.40;;
1378;SDS011;683;48.738;9.226;2022-10-16T08:56:19;1.57;;;1.47;;
1378;SDS011;683;48.738;9.226;2022-10-16T08:58:48;2.33;;;1.70;;
1378;SDS011;683;48.738;9.226;2022-10-16T09:01:17;2.20;;;1.60;;
1378;SDS011;683;48.738;9.226;2022-10-16T09:03:52;3.00;;;1.97;;
1378;SDS011;683;48.738;9.226;2022-10-16T09:06:40;1.70;;;1.60;;
1378;SDS011;683;48.738;9.226;2022-10-16T09:09:19;2.50;;;1.70;;
1378;SDS011;683;48.738;9.226;2022-10-16T09:12:11;2.20;;;1.80;;
1378;SDS011;683;48.738;9.226;2022-10-16T09:14:52;3.50;;;1.40;;
1378;SDS011;683;48.738;9.226;2022-10-16T09:17:34;2.87;;;1.73;;
1378;SDS011;683;48.738;9.226;2022-10-16T09:20:13;2.20;;;1.23;;
1378;SDS011;683;48.738;9.226;2022-10-16T09:22:50;2.73;;;1.20;;
1378;SDS011;683;48.738;9.226;2022-10-16T09:25:21;1.73;;;1.63;;
1378;SDS011;683;48.738;9.226;2022-10-16T09:27:50;2.60;;;2.00;;
1378;SDS011;683;48.738;9.226;2022-10-16T09:30:21;1.67;;;1.50;;
1378;SDS011;683;48.738;9.226;2022-10-16T09:32:49;2.40;;;1.90;;
1378;SDS011;683;48.738;9.226;2022-10-16T09:35:19;1.67;;;1.40;;
1378;SDS011;683;48.738;9.226;2022-10-16T09:37:50;2.33;;;1.50;;
1378;SDS011;683;48.738;9.226;2022-10-16T09:40:24;1.63;;;1.20;;
1378;SDS011;683;48.738;9.226;2022-10-16T09:42:56;2.00;;;1.90;;
1378;SDS011;683;48.738;9.226;2022-10-16T09:45:30;1.37;;;1.27;;
1378;SDS011;683;48.738;9.226;2022-10-16T09:47:57;4.10;;;1.77;;
1378;SDS011;683;48.738;9.226;2022-10-16T09:50:27;2.67;;;1.60;;
1378;SDS011;683;48.738;9.226;2022-10-16T09:53:05;5.37;;;1.80;;
1378;SDS011;683;48.738;9.226;2022-10-16T09:55:47;3.33;;;1.80;;
1378;SDS011;683;48.738;9.226;2022-10-16T09:58:15;4.83;;;1.70;;
1378;SDS011;683;48.738;9.226;2022-10-16T10:00:49;3.93;;;2.27;;
1378;SDS011;683;48.738;9.226;2022-10-16T10:03:30;2.17;;;1.97;;
1378;SDS011;683;48.738;9.226;2022-10-16T10:06:03;2.47;;;1.60;;
1378;SDS011;683;48.738;9.226;2022-10-16T10:08:41;3.60;;;2.37;;
1378;SDS011;683;48.738;9.226;2022-10-16T10:14:18;3.80;;;2.17;;
1378;SDS011;683;48.738;9.226;2022-10-16T10:16:49;6.77;;;2.33;;
1378;SDS011;683;48.738;9.226;2022-10-16T10:19:19;6.60;;;1.90;;
1378;SDS011;683;48.738;9.226;2022-10-16T10:21:47;1.80;;;1.70;;
1378;SDS011;683;48.738;9.226;2022-10-16T10:24:16;1.70;;;1.50;;
1378;SDS011;683;48.738;9.226;2022-10-16T10:26:48;2.37;;;1.80;;
1378;SDS011;683;48.738;9.226;2022-10-16T10:29:26;2.50;;;1.93;;
1378;SDS011;683;48.738;9.226;2022-10-16T10:32:09;1.53;;;1.37;;
1378;SDS011;683;48.738;9.226;2022-10-16T10:34:49;1.33;;;1.23;;
1378;SDS011;683;48.738;9.226;2022-10-16T10:37:35;3.17;;;1.97;;
1378;SDS011;683;48.738;9.226;2022-10-16T10:40:12;2.30;;;1.50;;
1378;SDS011;683;48.738;9.226;2022-10-16T10:42:49;1.43;;;1.20;;
1378;SDS011;683;48.738;9.226;2022-10-16T10:45:24;1.90;;;1.27;;
1378;SDS011;683;48.738;9.226;2022-10-16T10:47:59;1.37;;;1.10;;
1378;SDS011;683;48.738;9.226;2022-10-16T10:50:38;2.43;;;1.33;;
1378;SDS011;683;48.738;9.226;2022-10-16T10:53:12;3.00;;;2.00;;
1378;SDS011;683;48.738;9.226;2022-10-16T10:55:49;2.80;;;1.40;;
1378;SDS011;683;48.738;9.226;2022-10-16T10:58:39;3.00;;;1.70;;
1378;SDS011;683;48.738;9.226;2022-10-16T11:01:24;2.03;;;1.83;;
1378;SDS011;683;48.738;9.226;2022-10-16T11:04:06;1.70;;;1.47;;
1378;SDS011;683;48.738;9.226;2022-10-16T11:06:48;3.73;;;1.30;;
1378;SDS011;683;48.738;9.226;2022-10-16T11:09:20;2.43;;;1.70;;
1378;SDS011;683;48.738;9.226;2022-10-16T11:11:53;4.67;;;1.37;;
1378;SDS011;683;48.738;9.226;2022-10-16T11:14:26;2.50;;;1.47;;
1378;SDS011;683;48.738;9.226;2022-10-16T11:16:58;2.80;;;1.90;;
1378;SDS011;683;48.738;9.226;2022-10-16T11:19:34;2.97;;;1.53;;
1378;SDS011;683;48.738;9.226;2022-10-16T11:22:09;4.10;;;2.33;;
1378;SDS011;683;48.738;9.226;2022-10-16T11:24:45;4.73;;;3.10;;
1378;SDS011;683;48.738;9.226;2022-10-16T11:27:17;6.37;;;4.50;;
1378;SDS011;683;48.738;9.226;2022-10-16T11:29:48;2.80;;;1.57;;
1378;SDS011;683;48.738;9.226;2022-10-16T11:32:20;2.10;;;2.00;;
1378;SDS011;683;48.738;9.226;2022-10-16T11:34:53;2.17;;;1.30;;
1378;SDS011;683;48.738;9.226;2022-10-16T11:37:27;2.23;;;1.53;;
1378;SDS011;683;48.738;9.226;2022-10-16T11:40:05;1.10;;;1.10;;
1378;SDS011;683;48.738;9.226;2022-10-16T11:42:46;1.40;;;1.30;;
1378;SDS011;683;48.738;9.226;2022-10-16T11:45:23;2.33;;;1.40;;
1378;SDS011;683;48.738;9.226;2022-10-16T11:47:58;4.23;;;1.80;;
1378;SDS011;683;48.738;9.226;2022-10-16T11:50:33;2.90;;;1.77;;
1378;SDS011;683;48.738;9.226;2022-10-16T11:53:05;1.50;;;1.40;;
1378;SDS011;683;48.738;9.226;2022-10-16T11:55:43;2.87;;;2.40;;
1378;SDS011;683;48.738;9.226;2022-10-16T11:58:14;1.60;;;1.37;;
1378;SDS011;683;48.738;9.226;2022-10-16T12:00:51;2.87;;;1.57;;
1378;SDS011;683;48.738;9.226;2022-10-16T12:03:25;1.67;;;1.57;;
1378;SDS011;683;48.738;9.226;2022-10-16T12:06:05;1.43;;;1.33;;
1378;SDS011;683;48.738;9.226;2022-10-16T12:08:40;1.70;;;1.50;;
1378;SDS011;683;48.738;9.226;2022-10-16T12:11:20;1.90;;;1.53;;
1378;SDS011;683;48.738;9.226;2022-10-16T12:13:50;2.10;;;1.63;;
1378;SDS011;683;48.738;9.226;2022-10-16T12:16:22;1.97;;;1.60;;
1378;SDS011;683;48.738;9.226;2022-10-16T12:19:02;3.60;;;1.80;;
1378;SDS011;683;48.738;9.226;2022-10-16T12:21:38;1.87;;;1.77;;
1378;SDS011;683;48.738;9.226;2022-10-16T12:24:06;1.63;;;1.53;;
1378;SDS011;683;48.738;9.226;2022-10-16T12:26:46;2.03;;;1.57;;
1378;SDS011;683;48.738;9.226;2022-10-16T12:29:23;1.47;;;1.37;;
1378;SDS011;683;48.738;9.226;2022-10-16T12:31:57;3.07;;;1.37;;
1378;SDS011;683;48.738;9.226;2022-10-16T12:34:26;2.50;;;1.63;;
1378;SDS011;683;48.738;9.226;2022-10-16T12:37:06;1.40;;;1.20;;
1378;SDS011;683;48.738;9.226;2022-10-16T12:39:36;5.33;;;1.73;;
1378;SDS011;683;48.738;9.226;2022-10-16T12:42:04;2.47;;;1.47;;
1378;SDS011;683;48.738;9.226;2022-10-16T12:44:45;1.63;;;1.53;;
1378;SDS011;683;48.738;9.226;2022-10-16T12:47:19;1.80;;;1.30;;
1378;SDS011;683;48.738;9.226;2022-10-16T12:49:48;1.40;;;1.30;;
1378;SDS011;683;48.738;9.226;2022-10-16T12:52:25;1.73;;;1.33;;
1378;SDS011;683;48.738;9.226;2022-10-16T12:54:55;1.37;;;1.20;;
1378;SDS011;683;48.738;9.226;2022-10-16T12:57:32;2.67;;;1.47;;
1378;SDS011;683;48.738;9.226;2022-10-16T13:00:13;3.43;;;1.70;;
1378;SDS011;683;48.738;9.226;2022-10-16T13:06:08;4.70;;;1.73;;
1378;SDS011;683;48.738;9.226;2022-10-16T13:08:52;1.50;;;1.40;;
1378;SDS011;683;48.738;9.226;2022-10-16T13:11:32;4.80;;;1.50;;
1378;SDS011;683;48.738;9.226;2022-10-16T13:14:15;1.77;;;1.67;;
1378;SDS011;683;48.738;9.226;2022-10-16T13:17:01;2.40;;;1.60;;
1378;SDS011;683;48.738;9.226;2022-10-16T13:19:38;1.70;;;1.60;;
1378;SDS011;683;48.738;9.226;2022-10-16T13:22:12;1.93;;;1.60;;
1378;SDS011;683;48.738;9.226;2022-10-16T13:24:49;1.40;;;1.30;;
1378;SDS011;683;48.738;9.226;2022-10-16T13:27:27;3.73;;;1.53;;
1378;SDS011;683;48.738;9.226;2022-10-16T13:30:07;1.60;;;1.50;;
1378;SDS011;683;48.738;9.226;2022-10-16T13:32:39;1.70;;;1.60;;
1378;SDS011;683;48.738;9.226;2022-10-16T13:35:18;3.37;;;1.47;;
1378;SDS011;683;48.738;9.226;2022-10-16T13:37:47;1.77;;;1.67;;
1378;SDS011;683;48.738;9.226;2022-10-16T13:40:19;1.50;;;1.40;;
1378;SDS011;683;48.738;9.226;2022-10-16T13:42:48;5.00;;;2.47;;
1378;SDS011;683;48.738;9.226;2022-10-16T13:45:17;3.50;;;1.80;;
1378;SDS011;683;48.738;9.226;2022-10-16T13:47:46;1.97;;;1.80;;
1378;SDS011;683;48.738;9.226;2022-10-16T13:50:14;1.70;;;1.60;;
1378;SDS011;683;48.738;9.226;2022-10-16T13:52:43;2.57;;;2.00;;
1378;SDS011;683;48.738;9.226;2022-10-16T13:55:11;2.40;;;2.20;;
1378;SDS011;683;48.738;9.226;2022-10-16T13:57:41;2.40;;;2.20;;
1378;SDS011;683;48.738;9.226;2022-10-16T14:00:19;2.80;;;2.10;;
1378;SDS011;683;48.738;9.226;2022-10-16T14:02:50;1.83;;;1.27;;
1378;SDS011;683;48.738;9.226;2022-10-16T14:05:21;1.90;;;1.80;;
1378;SDS011;683;48.738;9.226;2022-10-16T14:07:49;6.07;;;1.77;;
1378;SDS011;683;48.738;9.226;2022-10-16T14:10:19;3.53;;;1.83;;
1378;SDS011;683;48.738;9.226;2022-10-16T14:12:55;9.30;;;1.97;;
1378;SDS011;683;48.738;9.226;2022-10-16T14:15:24;4.97;;;2.00;;
1378;SDS011;683;48.738;9.226;2022-10-16T14:17:52;2.97;;;1.60;;
1378;SDS011;683;48.738;9.226;2022-10-16T14:20:20;3.10;;;2.80;;
1378;SDS011;683;48.738;9.226;2022-10-16T14:22:57;2.20;;;2.10;;
1378;SDS011;683;48.738;9.226;2022-10-16T14:25:27;2.70;;;2.50;;
1378;SDS011;683;48.738;9.226;2022-10-16T14:28:01;2.97;;;2.70;;
1378;SDS011;683;48.738;9.226;2022-10-16T14:30:31;3.53;;;2.30;;
1378;SDS011;683;48.738;9.226;2022-10-16T14:33:01;4.40;;;3.27;;
1378;SDS011;683;48.738;9.226;2022-10-16T14:35:30;2.60;;;2.33;;
1378;SDS011;683;48.738;9.226;2022-10-16T14:37:59;15.23;;;4.00;;
1378;SDS011;683;48.738;9.226;2022-10-16T14:40:29;3.40;;;3.10;;
1378;SDS011;683;48.738;9.226;2022-10-16T14:42:57;3.80;;;3.50;;
1378;SDS011;683;48.738;9.226;2022-10-16T14:45:28;3.13;;;2.60;;
1378;SDS011;683;48.738;9.226;2022-10-16T14:47:58;5.37;;;2.80;;
1378;SDS011;683;48.738;9.226;2022-10-16T14:50:28;3.30;;;3.00;;
1378;SDS011;683;48.738;9.226;2022-10-16T14:52:55;9.13;;;3.10;;
1378;SDS011;683;48.738;9.226;2022-10-16T14:55:22;2.80;;;2.40;;
1378;SDS011;683;48.738;9.226;2022-10-16T14:57:50;4.30;;;2.27;;
1378;SDS011;683;48.738;9.226;2022-10-16T15:00:19;4.10;;;3.13;;
1378;SDS011;683;48.738;9.226;2022-10-16T15:02:50;3.90;;;2.90;;
1378;SDS011;683;48.738;9.226;2022-10-16T15:05:18;3.37;;;2.60;;
1378;SDS011;683;48.738;9.226;2022-10-16T15:07:47;3.80;;;2.20;;
1378;SDS011;683;48.738;9.226;2022-10-16T15:10:15;4.90;;;2.90;;
1378;SDS011;683;48.738;9.226;2022-10-16T15:12:44;3.97;;;3.00;;
1378;SDS011;683;48.738;9.226;2022-10-16T15:15:25;3.70;;;3.40;;
1378;SDS011;683;48.738;9.226;2022-10-16T15:18:00;3.80;;;2.83;;
1378;SDS011;683;48.738;9.226;2022-10-16T15:20:28;4.43;;;2.93;;
1378;SDS011;683;48.738;9.226;2022-10-16T15:22:59;3.83;;;3.30;;
1378;SDS011;683;48.738;9.226;2022-10-16T15:25:31;2.57;;;2.17;;
1378;SDS011;683;48.738;9.226;2022-10-16T15:28:02;3.40;;;2.90;;
1378;SDS011;683;48.738;9.226;2022-10-16T15:30:30;3.17;;;2.53;;
1378;SDS011;683;48.738;9.226;2022-10-16T15:32:59;2.77;;;2.40;;
1378;SDS011;683;48.738;9.226;2022-10-16T15:35:27;3.50;;;2.50;;
1378;SDS011;683;48.738;9.226;2022-10-16T15:37:55;5.37;;;2.63;;
1378;SDS011;683;48.738;9.226;2022-10-16T15:40:22;6.27;;;2.57;;
1378;SDS011;683;48.738;9.226;2022-10-16T15:42:50;7.50;;;3.30;;
1378;SDS011;683;48.738;9.226;2022-10-16T15:45:17;3.57;;;2.93;;
1378;SDS011;683;48.738;9.226;2022-10-16T15:47:45;4.70;;;3.03;;
1378;SDS011;683;48.738;9.226;2022-10-16T15:50:14;5.60;;;3.10;;
1378;SDS011;683;48.738;9.226;2022-10-16T15:52:42;5.40;;;3.60;;
1378;SDS011;683;48.738;9.226;2022-10-16T15:55:11;7.53;;;3.90;;
1378;SDS011;683;48.738;9.226;2022-10-16T15:57:39;3.10;;;2.80;;
1378;SDS011;683;48.738;9.226;2022-10-16T16:00:08;3.03;;;2.80;;
1378;SDS011;683;48.738;9.226;2022-10-16T16:02:38;3.30;;;2.63;;